Time;durP1;ratioP1;P1;durP2;ratioP2;P2;SDS_P1;SDS_P2;PMS_P1;PMS_P2;Temp;Humidity;BMP_temperature;BMP_pressure;BME280_temperature;BME280_humidity;BME280_pressure;Samples;Min_cycle;Max_cycle;Signal;HPM_P1;HPM_P2
2022/03/27 00:01:34;;;;;;;31.85;14.40;;;6.20;50.40;;;;;;4979597;28;20031;-66
2022/03/27 00:04:00;;;;;;;31.50;14.88;;;6.20;50.50;;;;;;4979652;28;20062;-66
2022/03/27 00:06:26;;;;;;;37.00;15.63;;;6.10;50.60;;;;;;4978572;28;20037;-65
2022/03/27 00:08:52;;;;;;;35.17;15.75;;;6.10;50.70;;;;;;4977793;28;20034;-65
2022/03/27 00:11:29;;;;;;;34.42;15.55;;;6.00;50.80;;;;;;4977274;28;20061;-66
2022/03/27 00:13:59;;;;;;;32.88;15.27;;;6.00;51.00;;;;;;4979371;28;20057;-66
2022/03/27 00:16:25;;;;;;;31.13;15.25;;;5.90;51.10;;;;;;4978411;28;20034;-66
2022/03/27 00:18:51;;;;;;;35.50;15.50;;;5.90;51.00;;;;;;4978531;28;20836;-68
2022/03/27 00:21:17;;;;;;;34.20;14.88;;;5.90;51.10;;;;;;4978950;28;20030;-65
2022/03/27 00:23:44;;;;;;;31.27;15.43;;;5.90;51.20;;;;;;4978644;28;20042;-67
2022/03/27 00:26:10;;;;;;;30.83;15.15;;;5.90;51.40;;;;;;4976866;28;20441;-66
2022/03/27 00:28:36;;;;;;;32.58;14.68;;;5.80;52.10;;;;;;4975263;28;20061;-66
2022/03/27 00:31:05;;;;;;;31.48;13.98;;;5.80;51.50;;;;;;4977567;28;20038;-67
2022/03/27 00:33:31;;;;;;;29.83;14.15;;;5.70;51.60;;;;;;4971018;28;20034;-68
2022/03/27 00:35:59;;;;;;;25.85;13.35;;;5.70;51.70;;;;;;4972850;28;20042;-65
2022/03/27 00:38:29;;;;;;;27.05;13.70;;;5.60;51.80;;;;;;4977493;28;20030;-66
2022/03/27 00:40:55;;;;;;;26.13;13.35;;;5.60;51.90;;;;;;4974279;28;20703;-65
2022/03/27 00:43:22;;;;;;;25.80;13.55;;;5.50;51.80;;;;;;4976959;28;20030;-65
2022/03/27 00:45:48;;;;;;;28.77;13.80;;;5.50;52.10;;;;;;4976414;28;20060;-66
2022/03/27 00:48:15;;;;;;;31.40;14.20;;;5.50;52.10;;;;;;4975724;28;20426;-66
2022/03/27 00:50:42;;;;;;;30.45;14.25;;;5.40;52.20;;;;;;4954859;28;20126;-66
2022/03/27 00:53:08;;;;;;;30.00;13.68;;;5.30;52.10;;;;;;4964514;28;20034;-66
2022/03/27 00:55:34;;;;;;;25.92;11.93;;;5.30;52.20;;;;;;4975734;28;20041;-66
2022/03/27 00:58:01;;;;;;;25.48;12.57;;;5.30;52.30;;;;;;4975517;28;20066;-67
2022/03/27 01:00:38;;;;;;;26.90;12.27;;;5.20;52.30;;;;;;4978798;28;20140;-66
2022/03/27 01:03:07;;;;;;;30.00;12.93;;;5.30;53.10;;;;;;4960731;28;20067;-68
2022/03/27 01:05:33;;;;;;;27.20;12.82;;;5.20;52.60;;;;;;4975552;28;21557;-68
2022/03/27 01:08:04;;;;;;;27.88;13.25;;;5.20;52.50;;;;;;4977697;28;20147;-67
2022/03/27 01:10:29;;;;;;;31.65;13.40;;;5.10;52.70;;;;;;4978012;28;22398;-67
2022/03/27 01:12:55;;;;;;;24.13;12.48;;;5.10;52.70;;;;;;4977726;28;20042;-68
2022/03/27 01:15:53;;;;;;;31.15;13.70;;;5.10;52.90;;;;;;4966978;28;20698;-69
2022/03/27 01:18:19;;;;;;;29.08;12.85;;;5.00;54.00;;;;;;4970252;28;20258;-68
2022/03/27 01:20:45;;;;;;;25.65;12.55;;;4.90;52.90;;;;;;4953221;28;20810;-68
2022/03/27 01:23:14;;;;;;;23.52;12.95;;;4.90;53.10;;;;;;4962957;28;20122;-68
2022/03/27 01:25:42;;;;;;;31.58;14.18;;;4.90;53.50;;;;;;4975192;28;20034;-68
2022/03/27 01:28:11;;;;;;;27.77;13.10;;;4.80;53.50;;;;;;4962973;28;20103;-68
2022/03/27 01:30:37;;;;;;;30.58;13.32;;;4.80;53.70;;;;;;4955673;28;20779;-67
2022/03/27 01:33:05;;;;;;;29.88;13.23;;;4.70;53.60;;;;;;4973824;28;20041;-68
2022/03/27 01:35:32;;;;;;;27.70;12.15;;;4.70;53.90;;;;;;4974934;28;20556;-68
2022/03/27 01:37:58;;;;;;;30.83;12.55;;;4.70;53.90;;;;;;4975436;28;20038;-67
2022/03/27 01:40:24;;;;;;;29.50;12.98;;;4.60;54.00;;;;;;4958860;28;20462;-68
2022/03/27 01:42:53;;;;;;;27.88;12.45;;;4.60;54.00;;;;;;4968990;28;20564;-67
2022/03/27 01:45:19;;;;;;;25.38;12.73;;;4.50;54.10;;;;;;4953563;28;20061;-69
2022/03/27 01:47:45;;;;;;;30.25;13.38;;;4.50;54.10;;;;;;4971679;28;20369;-69
2022/03/27 01:50:11;;;;;;;30.90;13.05;;;4.50;54.20;;;;;;4980615;28;20168;-68
2022/03/27 01:52:37;;;;;;;29.92;13.35;;;4.40;54.30;;;;;;4962575;28;20034;-69
2022/03/27 01:55:06;;;;;;;26.17;12.40;;;4.40;54.40;;;;;;4963639;28;20125;-66
2022/03/27 01:57:31;;;;;;;26.85;13.07;;;4.30;54.60;;;;;;4974454;28;20037;-70
2022/03/27 01:59:57;;;;;;;24.65;12.15;;;4.40;54.60;;;;;;4976181;28;20035;-68
2022/03/27 02:02:26;;;;;;;26.05;12.63;;;4.30;54.60;;;;;;4974484;28;20069;-68
2022/03/27 02:04:55;;;;;;;29.85;12.48;;;4.30;54.80;;;;;;4974803;28;20043;-68
2022/03/27 02:07:22;;;;;;;27.88;12.73;;;4.30;55.10;;;;;;4974094;28;20042;-66
2022/03/27 02:09:48;;;;;;;26.10;12.45;;;4.30;54.90;;;;;;4976889;28;21370;-67
2022/03/27 02:12:14;;;;;;;26.10;11.82;;;4.20;55.10;;;;;;4960134;28;20351;-68
2022/03/27 02:14:39;;;;;;;29.42;12.77;;;4.20;54.90;;;;;;4958638;28;20032;-69
2022/03/27 02:17:05;;;;;;;28.60;12.45;;;4.20;55.00;;;;;;4965196;28;20027;-68
2022/03/27 02:19:31;;;;;;;29.83;12.88;;;4.10;55.10;;;;;;4962431;28;20034;-68
2022/03/27 02:21:57;;;;;;;25.20;11.93;;;4.10;55.20;;;;;;4974625;28;20490;-68
2022/03/27 02:24:22;;;;;;;26.73;12.25;;;4.00;55.20;;;;;;4974197;28;20026;-69
2022/03/27 02:26:50;;;;;;;25.92;11.77;;;4.00;55.30;;;;;;4975358;28;20042;-69
2022/03/27 02:29:17;;;;;;;21.70;11.75;;;4.00;55.50;;;;;;4973846;28;20038;-68
2022/03/27 02:31:43;;;;;;;27.55;12.20;;;4.00;55.50;;;;;;4961903;28;20031;-68
2022/03/27 02:34:09;;;;;;;27.77;11.88;;;3.90;55.60;;;;;;4952835;28;20406;-67
2022/03/27 02:36:35;;;;;;;27.23;12.60;;;4.00;55.80;;;;;;4972837;28;20410;-68
2022/03/27 02:39:01;;;;;;;26.88;11.65;;;3.90;55.70;;;;;;4969013;28;20287;-67
2022/03/27 02:41:27;;;;;;;29.33;11.88;;;3.90;55.80;;;;;;4954304;28;20086;-69
2022/03/27 02:43:52;;;;;;;27.58;11.68;;;3.90;55.90;;;;;;4970125;28;20534;-67
2022/03/27 02:46:19;;;;;;;23.63;10.68;;;3.80;55.90;;;;;;4959126;28;20065;-70
2022/03/27 02:48:45;;;;;;;28.70;11.88;;;3.80;56.00;;;;;;4971860;28;20039;-69
2022/03/27 02:51:10;;;;;;;28.27;11.68;;;3.80;55.90;;;;;;4967074;28;20042;-67
2022/03/27 02:53:36;;;;;;;29.02;11.90;;;3.80;56.20;;;;;;4953161;28;20061;-68
2022/03/27 02:56:04;;;;;;;24.35;10.60;;;3.80;56.20;;;;;;4967396;28;20053;-68
2022/03/27 02:58:30;;;;;;;26.58;12.13;;;3.80;56.30;;;;;;4955586;28;20031;-68
2022/03/27 03:00:56;;;;;;;23.65;11.30;;;3.70;56.30;;;;;;4972024;28;20037;-67
2022/03/27 03:03:22;;;;;;;21.73;10.63;;;3.70;56.30;;;;;;4963925;28;20034;-69
2022/03/27 03:05:49;;;;;;;23.95;11.65;;;3.70;56.40;;;;;;4953097;28;20089;-68
2022/03/27 03:08:17;;;;;;;20.73;10.75;;;3.70;56.40;;;;;;4969583;28;20153;-68
2022/03/27 03:10:44;;;;;;;22.88;11.15;;;3.70;56.40;;;;;;4973523;28;20053;-68
2022/03/27 03:13:11;;;;;;;25.15;12.05;;;3.70;56.20;;;;;;4953620;28;20067;-70
2022/03/27 03:15:37;;;;;;;27.70;11.38;;;3.70;56.40;;;;;;4961639;28;20502;-72
2022/03/27 03:18:04;;;;;;;29.75;11.75;;;3.70;56.50;;;;;;4975608;28;20073;-67
2022/03/27 03:20:31;;;;;;;22.08;10.35;;;3.60;56.60;;;;;;4952575;28;20122;-68
2022/03/27 03:22:57;;;;;;;26.90;11.85;;;3.60;56.60;;;;;;4956092;28;20038;-69
2022/03/27 03:25:23;;;;;;;25.95;11.30;;;3.60;56.60;;;;;;4971541;28;20046;-68
2022/03/27 03:27:49;;;;;;;27.38;11.18;;;3.60;56.80;;;;;;4961913;28;20045;-67
2022/03/27 03:30:16;;;;;;;23.80;10.95;;;3.50;56.80;;;;;;4952406;28;20034;-68
2022/03/27 03:32:42;;;;;;;27.50;11.65;;;3.50;56.90;;;;;;4950580;28;20045;-67
2022/03/27 03:35:09;;;;;;;29.23;11.88;;;3.50;57.00;;;;;;4949897;28;20043;-68
2022/03/27 03:37:35;;;;;;;24.00;11.43;;;3.50;57.10;;;;;;4951287;28;20038;-68
2022/03/27 03:40:02;;;;;;;23.10;11.27;;;3.40;57.20;;;;;;4965831;28;20035;-68
2022/03/27 03:42:28;;;;;;;25.15;10.65;;;3.40;57.20;;;;;;4972924;28;20031;-67
2022/03/27 03:44:54;;;;;;;24.10;11.70;;;3.30;57.30;;;;;;4962923;28;20531;-68
2022/03/27 03:47:20;;;;;;;30.88;11.90;;;3.30;57.40;;;;;;4968525;28;20039;-67
2022/03/27 03:49:46;;;;;;;29.83;14.02;;;3.30;57.40;;;;;;4963516;28;20034;-69
2022/03/27 03:52:11;;;;;;;27.95;13.02;;;3.20;57.50;;;;;;4959208;28;20043;-67
2022/03/27 03:54:37;;;;;;;27.30;12.88;;;3.20;57.60;;;;;;4967908;28;20061;-68
2022/03/27 03:57:04;;;;;;;30.00;12.68;;;3.20;57.70;;;;;;4956305;28;20038;-68
2022/03/27 03:59:33;;;;;;;26.23;13.65;;;3.10;57.80;;;;;;4964794;28;20047;-67
2022/03/27 04:01:59;;;;;;;32.78;14.93;;;3.10;57.90;;;;;;4963622;28;20041;-67
2022/03/27 04:04:25;;;;;;;29.10;14.77;;;3.10;58.00;;;;;;4954387;28;20074;-68
2022/03/27 04:06:51;;;;;;;31.95;13.60;;;3.10;58.10;;;;;;4955501;28;20138;-69
2022/03/27 04:09:17;;;;;;;31.15;12.07;;;3.10;58.10;;;;;;4972291;28;21488;-69
2022/03/27 04:11:43;;;;;;;23.73;10.80;;;3.10;58.70;;;;;;4962748;28;20046;-69
2022/03/27 04:14:09;;;;;;;26.48;11.48;;;3.10;58.20;;;;;;4963069;28;20039;-68
2022/03/27 04:16:35;;;;;;;26.13;11.70;;;3.10;58.10;;;;;;4979015;28;20335;-68
2022/03/27 04:19:00;;;;;;;27.67;11.45;;;3.10;58.10;;;;;;4975964;28;20097;-67
2022/03/27 04:21:26;;;;;;;25.27;11.95;;;3.10;58.10;;;;;;4962456;28;20035;-68
2022/03/27 04:23:52;;;;;;;26.83;11.95;;;3.10;58.10;;;;;;4974210;28;20035;-67
2022/03/27 04:26:18;;;;;;;23.33;10.63;;;3.00;58.20;;;;;;4980891;28;20429;-68
2022/03/27 04:28:45;;;;;;;24.15;10.82;;;3.10;58.30;;;;;;4976044;28;20096;-69
2022/03/27 04:31:11;;;;;;;28.10;11.30;;;3.00;58.40;;;;;;4970122;28;20058;-68
2022/03/27 04:33:36;;;;;;;24.73;11.10;;;3.00;58.50;;;;;;4954373;28;20446;-68
2022/03/27 04:36:06;;;;;;;26.17;11.73;;;3.00;58.50;;;;;;4959989;28;20031;-68
2022/03/27 04:38:32;;;;;;;22.65;11.27;;;3.00;58.90;;;;;;4975047;28;20513;-68
2022/03/27 04:40:57;;;;;;;29.38;11.00;;;3.00;58.80;;;;;;4961329;28;20033;-67
2022/03/27 04:43:23;;;;;;;28.02;11.10;;;3.00;58.80;;;;;;4969883;28;20305;-69
2022/03/27 04:45:49;;;;;;;24.38;11.40;;;3.00;58.80;;;;;;4956494;28;20049;-68
2022/03/27 04:48:15;;;;;;;26.35;11.82;;;2.90;58.80;;;;;;4969528;28;20097;-68
2022/03/27 04:50:41;;;;;;;26.67;12.02;;;2.90;58.80;;;;;;4971628;28;20051;-68
2022/03/27 04:53:07;;;;;;;25.55;11.80;;;2.90;58.80;;;;;;4960901;28;20026;-68
2022/03/27 04:55:33;;;;;;;27.23;11.82;;;2.90;58.80;;;;;;4966096;28;20306;-69
2022/03/27 04:57:58;;;;;;;26.17;11.82;;;2.90;58.70;;;;;;4974503;28;20034;-67
2022/03/27 05:00:24;;;;;;;24.35;11.00;;;2.90;58.70;;;;;;4962024;28;20042;-67
2022/03/27 05:02:49;;;;;;;29.50;11.88;;;2.90;58.70;;;;;;4976169;28;20034;-70
2022/03/27 05:05:15;;;;;;;29.92;12.13;;;2.90;58.70;;;;;;4976452;28;20397;-69
2022/03/27 05:07:43;;;;;;;26.83;11.65;;;2.90;58.80;;;;;;4974308;28;20136;-67
2022/03/27 05:10:10;;;;;;;28.88;11.48;;;2.80;59.00;;;;;;4978249;28;20077;-67
2022/03/27 05:12:36;;;;;;;26.67;11.10;;;2.80;59.10;;;;;;4976085;28;20039;-68
2022/03/27 05:15:02;;;;;;;23.30;11.75;;;2.80;59.00;;;;;;4978378;28;20409;-67
2022/03/27 05:17:27;;;;;;;24.65;11.23;;;2.80;59.10;;;;;;4976979;28;20125;-68
2022/03/27 05:19:53;;;;;;;23.55;11.05;;;2.90;59.30;;;;;;4977975;28;20603;-68
2022/03/27 05:22:19;;;;;;;23.00;10.60;;;2.80;59.20;;;;;;4975733;28;20728;-68
2022/03/27 05:24:47;;;;;;;22.73;9.77;;;2.80;59.30;;;;;;4980421;28;20038;-68
2022/03/27 05:27:17;;;;;;;25.10;11.07;;;2.80;59.30;;;;;;4976430;28;20039;-67
2022/03/27 05:29:43;;;;;;;22.75;10.60;;;2.80;59.50;;;;;;4974972;28;20046;-68
2022/03/27 05:32:08;;;;;;;26.77;11.98;;;2.80;59.30;;;;;;4975150;28;20046;-68
2022/03/27 05:34:34;;;;;;;28.58;11.38;;;2.80;59.50;;;;;;4971411;28;20046;-70
2022/03/27 05:37:00;;;;;;;27.40;11.98;;;2.80;59.50;;;;;;4933993;28;1104486;-68
2022/03/27 05:39:25;;;;;;;25.05;11.65;;;2.80;59.50;;;;;;4974805;28;20481;-67
2022/03/27 05:41:51;;;;;;;26.33;12.75;;;2.80;59.50;;;;;;4976322;28;20046;-69
2022/03/27 05:44:16;;;;;;;29.67;12.50;;;2.80;59.90;;;;;;4974242;28;20042;-67
2022/03/27 05:46:42;;;;;;;26.60;12.43;;;2.80;59.50;;;;;;4976710;28;20038;-68
2022/03/27 05:49:08;;;;;;;25.15;11.57;;;2.80;59.60;;;;;;4975344;28;20046;-69
2022/03/27 05:51:33;;;;;;;27.23;11.25;;;2.80;59.70;;;;;;4976655;28;20033;-67
2022/03/27 05:53:59;;;;;;;29.67;11.48;;;2.80;59.80;;;;;;4977476;28;20505;-67
2022/03/27 05:56:24;;;;;;;30.35;12.73;;;2.80;59.90;;;;;;4974039;28;20425;-68
2022/03/27 05:58:50;;;;;;;48.58;18.25;;;2.80;60.00;;;;;;4976527;28;20034;-68
2022/03/27 06:01:16;;;;;;;48.72;21.00;;;2.80;60.00;;;;;;4977118;28;20505;-67
2022/03/27 06:03:42;;;;;;;49.38;20.73;;;2.80;60.20;;;;;;4975492;28;20564;-69
2022/03/27 06:06:08;;;;;;;46.38;19.23;;;2.90;60.30;;;;;;4974997;28;20047;-68
2022/03/27 06:08:33;;;;;;;50.17;19.88;;;2.90;61.20;;;;;;4973210;28;20192;-68
2022/03/27 06:11:00;;;;;;;37.28;16.10;;;3.00;60.40;;;;;;4973871;28;20138;-68
2022/03/27 06:13:25;;;;;;;31.25;13.60;;;2.90;60.50;;;;;;4975052;28;20066;-68
2022/03/27 06:15:51;;;;;;;27.27;12.05;;;3.00;60.70;;;;;;4976085;28;20458;-68
2022/03/27 06:18:17;;;;;;;31.50;12.07;;;3.10;60.80;;;;;;4979040;28;20035;-69
2022/03/27 06:20:43;;;;;;;24.92;11.15;;;3.10;60.80;;;;;;4976436;28;20074;-67
2022/03/27 06:23:08;;;;;;;28.60;11.75;;;3.20;60.70;;;;;;4975398;28;20038;-70
2022/03/27 06:25:35;;;;;;;28.83;11.88;;;3.30;60.90;;;;;;4975299;28;20080;-68
2022/03/27 06:28:02;;;;;;;24.75;11.75;;;3.30;61.00;;;;;;4974059;28;20050;-68
2022/03/27 06:30:30;;;;;;;35.63;12.32;;;3.40;61.10;;;;;;4972284;28;20038;-69
2022/03/27 06:32:56;;;;;;;25.83;11.85;;;3.50;61.10;;;;;;4980937;28;20035;-67
2022/03/27 06:35:23;;;;;;;28.75;12.35;;;3.60;61.40;;;;;;4975069;28;20046;-68
2022/03/27 06:37:50;;;;;;;32.05;12.75;;;3.70;61.60;;;;;;4973247;28;20043;-68
2022/03/27 06:40:17;;;;;;;29.88;12.55;;;3.70;61.70;;;;;;4975221;28;20201;-69
2022/03/27 06:42:44;;;;;;;37.65;14.23;;;3.80;61.50;;;;;;4979087;28;20039;-67
2022/03/27 06:45:11;;;;;;;42.25;16.85;;;3.90;61.70;;;;;;4973321;28;20101;-68
2022/03/27 06:47:37;;;;;;;44.08;16.80;;;4.00;62.30;;;;;;4976065;28;20078;-68
2022/03/27 06:50:04;;;;;;;40.85;15.20;;;4.10;61.60;;;;;;4975986;28;20035;-68
2022/03/27 06:52:32;;;;;;;32.13;13.85;;;4.20;61.60;;;;;;4987902;28;20043;-67
2022/03/27 06:54:58;;;;;;;32.80;12.40;;;4.40;61.90;;;;;;4974960;28;20035;-67
2022/03/27 06:57:25;;;;;;;25.73;11.30;;;4.50;61.80;;;;;;4974188;28;20050;-67
2022/03/27 07:05:22;;;;;;;29.88;11.02;;;4.90;61.40;;;;;;4973775;28;20112;-67
2022/03/27 07:07:48;;;;;;;23.92;11.18;;;5.10;61.40;;;;;;4970447;28;20034;-66
2022/03/27 07:10:14;;;;;;;25.05;10.93;;;5.20;61.10;;;;;;4971447;28;20080;-67
2022/03/27 07:12:39;;;;;;;24.27;11.43;;;5.40;60.70;;;;;;4973986;28;20121;-66
2022/03/27 07:15:06;;;;;;;28.38;11.10;;;5.60;60.60;;;;;;4971886;28;20039;-67
2022/03/27 07:17:32;;;;;;;26.55;11.23;;;5.70;60.40;;;;;;4956560;28;20042;-67
2022/03/27 07:19:58;;;;;;;27.52;12.02;;;5.80;60.30;;;;;;4968207;28;20207;-66
2022/03/27 07:22:24;;;;;;;21.20;11.13;;;6.00;60.30;;;;;;4973186;28;20497;-66
2022/03/27 07:24:50;;;;;;;20.00;10.32;;;6.10;60.00;;;;;;4952801;28;20069;-66
2022/03/27 07:27:16;;;;;;;25.13;12.02;;;6.20;59.90;;;;;;4960161;28;20038;-66
2022/03/27 07:29:42;;;;;;;26.17;11.60;;;6.40;60.20;;;;;;4974328;28;20330;-67
2022/03/27 07:32:08;;;;;;;23.48;10.80;;;6.60;59.90;;;;;;4958804;28;21770;-66
2022/03/27 07:34:35;;;;;;;26.63;12.38;;;6.70;59.70;;;;;;4956261;28;20035;-68
2022/03/27 07:37:01;;;;;;;24.33;11.60;;;6.80;59.90;;;;;;4974232;28;20034;-66
2022/03/27 07:39:27;;;;;;;26.85;11.55;;;6.90;59.60;;;;;;4965252;28;20027;-67
2022/03/27 07:41:52;;;;;;;23.02;12.18;;;7.10;59.20;;;;;;4954909;28;20414;-67
2022/03/27 07:44:18;;;;;;;26.42;12.38;;;7.20;59.20;;;;;;4971921;28;20490;-65
2022/03/27 07:46:44;;;;;;;22.52;11.38;;;7.30;59.00;;;;;;4953776;28;20030;-66
2022/03/27 07:49:10;;;;;;;23.63;11.82;;;7.40;58.90;;;;;;4975260;28;20110;-67
2022/03/27 07:51:36;;;;;;;27.02;11.65;;;7.60;59.00;;;;;;4968534;28;20055;-66
2022/03/27 07:54:03;;;;;;;26.80;10.95;;;7.70;58.90;;;;;;4957894;28;20562;-66
2022/03/27 07:56:31;;;;;;;24.58;11.38;;;7.80;58.70;;;;;;4974612;28;20114;-67
2022/03/27 07:58:57;;;;;;;26.55;11.90;;;7.90;58.40;;;;;;4971202;28;20043;-67
2022/03/27 08:01:23;;;;;;;20.70;10.25;;;8.10;58.20;;;;;;4954524;28;20073;-69
2022/03/27 08:03:49;;;;;;;26.60;12.07;;;8.20;57.90;;;;;;4963150;28;20513;-65
2022/03/27 08:06:16;;;;;;;27.42;11.32;;;8.30;57.70;;;;;;4971417;28;20498;-67
2022/03/27 08:08:42;;;;;;;24.63;11.10;;;8.40;57.50;;;;;;4954080;28;20299;-66
2022/03/27 08:11:07;;;;;;;26.50;11.05;;;8.60;57.50;;;;;;4954845;28;20039;-67
2022/03/27 08:13:34;;;;;;;24.17;11.35;;;8.70;57.50;;;;;;4974511;28;20081;-66
2022/03/27 08:16:00;;;;;;;28.90;11.65;;;8.80;57.50;;;;;;4972323;28;20030;-67
2022/03/27 08:18:25;;;;;;;23.40;10.57;;;8.90;57.20;;;;;;4977001;28;20042;-65
2022/03/27 08:20:51;;;;;;;22.92;10.95;;;9.10;57.20;;;;;;4957226;28;20031;-66
2022/03/27 08:23:17;;;;;;;22.38;10.50;;;9.20;56.90;;;;;;4961548;28;20120;-67
2022/03/27 08:28:26;;;;;;;22.17;11.02;;;9.50;56.80;;;;;;4962765;28;20045;-67
2022/03/27 08:30:52;;;;;;;25.00;11.63;;;9.60;56.40;;;;;;4957958;28;20034;-68
2022/03/27 08:33:18;;;;;;;24.15;11.18;;;9.80;56.00;;;;;;4979212;28;20057;-67
2022/03/27 08:35:44;;;;;;;24.13;10.85;;;9.90;55.80;;;;;;4965338;28;20414;-67
2022/03/27 08:38:15;;;;;;;24.98;11.38;;;10.10;55.40;;;;;;4957676;28;20415;-67
2022/03/27 08:40:44;;;;;;;18.92;10.50;;;10.20;55.20;;;;;;4973501;28;20030;-66
2022/03/27 08:43:14;;;;;;;21.80;10.23;;;10.40;55.00;;;;;;4965880;28;20079;-66
2022/03/27 08:45:41;;;;;;;22.65;10.75;;;10.50;54.60;;;;;;4966320;28;20046;-67
2022/03/27 08:48:07;;;;;;;26.33;11.32;;;10.70;54.30;;;;;;4956262;28;20036;-68
2022/03/27 08:51:07;;;;;;;27.48;11.13;;;10.80;54.00;;;;;;4955204;28;20043;-66
2022/03/27 08:53:59;;;;;;;22.15;10.65;;;10.90;53.70;;;;;;4975595;28;20054;-66
2022/03/27 08:56:26;;;;;;;22.45;10.88;;;11.10;53.10;;;;;;4960634;28;20053;-68
2022/03/27 08:58:55;;;;;;;17.85;9.43;;;11.20;53.20;;;;;;4960379;28;20121;-67
2022/03/27 09:01:21;;;;;;;20.67;10.65;;;11.30;52.90;;;;;;4976437;28;20425;-67
2022/03/27 09:03:47;;;;;;;21.40;10.18;;;11.50;52.70;;;;;;4973990;28;20034;-67
2022/03/27 09:06:12;;;;;;;21.60;10.15;;;11.60;52.70;;;;;;4964178;28;20075;-67
2022/03/27 09:08:38;;;;;;;28.42;11.02;;;11.70;52.40;;;;;;4974630;28;20042;-70
2022/03/27 09:11:06;;;;;;;19.67;9.95;;;11.90;52.10;;;;;;4976275;28;20042;-64
2022/03/27 09:13:32;;;;;;;23.05;10.00;;;11.90;51.90;;;;;;4978354;28;20410;-69
2022/03/27 09:16:04;;;;;;;22.30;10.05;;;12.10;51.60;;;;;;4973858;28;20034;-67
2022/03/27 09:18:47;;;;;;;25.23;9.68;;;12.30;51.10;;;;;;4969873;28;20034;-66
2022/03/27 09:21:14;;;;;;;22.73;9.60;;;12.40;50.80;;;;;;4965458;28;20038;-67
2022/03/27 09:23:40;;;;;;;20.55;10.43;;;12.50;50.90;;;;;;4969844;28;20031;-68
2022/03/27 09:26:13;;;;;;;20.90;9.82;;;12.60;50.70;;;;;;4973969;28;20057;-68
2022/03/27 09:28:43;;;;;;;19.85;9.48;;;12.70;50.60;;;;;;4970387;28;20030;-66
2022/03/27 09:31:15;;;;;;;22.52;10.82;;;12.80;50.50;;;;;;4970958;28;20047;-67
2022/03/27 09:33:53;;;;;;;21.55;10.10;;;13.00;50.00;;;;;;4974506;28;20030;-67
2022/03/27 09:36:23;;;;;;;19.13;10.60;;;13.10;49.90;;;;;;4977973;28;20035;-66
2022/03/27 09:39:11;;;;;;;24.00;10.02;;;13.20;49.40;;;;;;4977622;28;20051;-66
2022/03/27 09:41:40;;;;;;;22.00;9.88;;;13.40;48.40;;;;;;4974816;28;20045;-68
2022/03/27 09:44:13;;;;;;;24.75;9.90;;;13.50;48.70;;;;;;4972533;28;20049;-67
2022/03/27 09:46:57;;;;;;;20.20;10.65;;;13.60;48.40;;;;;;4973346;28;20031;-66
2022/03/27 09:49:37;;;;;;;18.42;9.80;;;13.80;48.30;;;;;;4972080;28;20043;-68
2022/03/27 09:52:08;;;;;;;21.83;11.13;;;13.90;48.60;;;;;;4970996;28;20081;-68
2022/03/27 09:54:55;;;;;;;20.75;10.25;;;14.00;48.20;;;;;;4965026;28;20093;-66
2022/03/27 09:57:34;;;;;;;24.98;11.77;;;14.10;47.50;;;;;;4970492;28;20023;-68
2022/03/27 10:00:18;;;;;;;20.92;10.20;;;14.20;47.20;;;;;;4978981;28;20404;-66
2022/03/27 10:02:45;;;;;;;22.48;10.13;;;14.40;46.80;;;;;;4978140;28;20035;-66
2022/03/27 10:05:12;;;;;;;22.05;11.40;;;14.50;47.20;;;;;;4978881;28;20039;-70
2022/03/27 10:07:45;;;;;;;22.83;11.02;;;14.60;47.00;;;;;;4977243;28;20339;-67
2022/03/27 10:10:14;;;;;;;23.60;12.40;;;14.70;46.20;;;;;;4977125;28;20043;-68
2022/03/27 10:12:42;;;;;;;17.52;10.75;;;14.80;45.70;;;;;;4973922;28;20041;-68
2022/03/27 10:15:13;;;;;;;29.63;12.45;;;14.90;46.40;;;;;;4977272;28;20477;-66
2022/03/27 10:17:41;;;;;;;22.50;11.50;;;15.00;45.50;;;;;;4979276;28;20038;-67
2022/03/27 10:20:16;;;;;;;21.88;11.40;;;15.10;46.00;;;;;;4979603;28;20449;-67
2022/03/27 10:22:46;;;;;;;23.83;12.32;;;15.30;45.60;;;;;;4980343;28;20054;-66
2022/03/27 10:25:14;;;;;;;21.40;12.55;;;15.40;45.80;;;;;;4979474;28;20045;-69
2022/03/27 10:27:42;;;;;;;21.33;12.30;;;15.50;45.40;;;;;;4974324;28;20587;-67
2022/03/27 10:30:10;;;;;;;23.73;12.52;;;15.60;45.70;;;;;;4976026;28;20038;-67
2022/03/27 10:32:36;;;;;;;21.40;12.57;;;15.70;45.00;;;;;;4976623;28;20401;-67
2022/03/27 10:35:06;;;;;;;30.35;13.63;;;15.80;44.60;;;;;;4978908;28;20034;-66
2022/03/27 10:37:51;;;;;;;24.65;13.10;;;15.90;44.00;;;;;;4980325;28;20200;-67
2022/03/27 10:40:26;;;;;;;22.67;12.57;;;16.00;43.20;;;;;;4977774;28;20035;-67
2022/03/27 10:43:02;;;;;;;26.50;12.82;;;16.20;43.50;;;;;;4975571;28;20369;-67
2022/03/27 10:45:27;;;;;;;26.15;14.68;;;16.30;43.00;;;;;;4968308;28;20039;-67
2022/03/27 10:48:18;;;;;;;26.25;13.45;;;16.50;43.20;;;;;;4972090;28;20042;-67
2022/03/27 10:50:55;;;;;;;26.90;14.35;;;16.50;42.20;;;;;;4971795;28;20742;-67
2022/03/27 10:53:23;;;;;;;31.58;14.38;;;16.60;41.80;;;;;;4976946;28;20031;-67
2022/03/27 10:55:51;;;;;;;22.85;13.15;;;16.70;41.40;;;;;;4969609;28;20034;-66
2022/03/27 10:58:35;;;;;;;25.77;14.00;;;16.70;41.70;;;;;;4959684;28;20588;-69
2022/03/27 11:01:04;;;;;;;22.58;13.68;;;16.80;41.00;;;;;;4979102;28;20034;-67
2022/03/27 11:03:46;;;;;;;25.00;14.15;;;16.90;41.60;;;;;;4970383;28;20035;-67
2022/03/27 11:06:23;;;;;;;25.63;13.82;;;16.90;41.10;;;;;;4959122;28;20418;-66
2022/03/27 11:08:50;;;;;;;22.90;13.35;;;17.00;40.70;;;;;;4979012;28;20058;-66
2022/03/27 11:11:35;;;;;;;21.88;13.10;;;17.20;41.40;;;;;;4974569;28;20034;-66
2022/03/27 11:14:01;;;;;;;22.00;12.90;;;17.20;40.80;;;;;;4979077;28;20081;-68
2022/03/27 11:16:27;;;;;;;22.38;12.70;;;17.30;41.30;;;;;;4961967;28;20510;-68
2022/03/27 11:18:53;;;;;;;21.73;13.05;;;17.40;41.00;;;;;;4961707;28;20121;-68
2022/03/27 11:21:27;;;;;;;23.83;13.68;;;17.50;41.00;;;;;;4970419;28;20047;-67
2022/03/27 11:24:18;;;;;;;25.75;14.20;;;17.50;40.20;;;;;;4969935;28;20085;-67
2022/03/27 11:26:44;;;;;;;25.83;14.00;;;17.60;39.70;;;;;;4975109;28;20053;-66
2022/03/27 11:29:10;;;;;;;25.65;13.43;;;17.70;39.80;;;;;;4958132;28;20039;-67
2022/03/27 11:31:37;;;;;;;21.35;13.73;;;17.70;40.00;;;;;;4968156;28;20030;-68
2022/03/27 11:34:08;;;;;;;20.75;13.05;;;17.80;40.50;;;;;;4975744;28;20521;-67
2022/03/27 11:36:38;;;;;;;19.98;13.05;;;17.90;39.40;;;;;;4960249;28;20035;-67
2022/03/27 11:39:07;;;;;;;22.58;12.57;;;17.90;39.10;;;;;;4974717;28;20044;-67
2022/03/27 11:41:43;;;;;;;23.65;12.80;;;18.00;39.10;;;;;;4976860;28;20030;-69
2022/03/27 11:44:17;;;;;;;23.77;12.45;;;18.10;39.10;;;;;;4965793;28;20391;-66
2022/03/27 11:46:54;;;;;;;22.63;12.60;;;18.10;38.40;;;;;;4960253;28;20418;-67
2022/03/27 11:49:22;;;;;;;18.02;11.68;;;18.20;38.30;;;;;;4978763;28;20030;-69
2022/03/27 11:52:02;;;;;;;22.55;12.30;;;18.30;38.70;;;;;;4967782;28;20117;-69
2022/03/27 11:54:28;;;;;;;20.65;12.15;;;18.40;38.70;;;;;;4958403;28;20039;-67
2022/03/27 11:57:00;;;;;;;21.67;12.98;;;18.40;38.50;;;;;;4978987;28;20497;-68
2022/03/27 11:59:26;;;;;;;20.17;12.25;;;18.50;37.90;;;;;;4977097;28;20048;-66
2022/03/27 12:02:03;;;;;;;20.52;11.95;;;18.50;38.20;;;;;;4978888;28;20085;-68
2022/03/27 12:04:29;;;;;;;21.13;12.20;;;18.60;37.40;;;;;;4959895;28;20046;-67
2022/03/27 12:06:55;;;;;;;23.17;13.40;;;18.70;38.20;;;;;;4962678;28;20031;-67
2022/03/27 12:09:28;;;;;;;21.33;12.88;;;18.70;37.60;;;;;;4977337;28;20114;-67
2022/03/27 12:12:14;;;;;;;21.25;13.10;;;18.80;38.20;;;;;;4963734;28;20035;-67
2022/03/27 12:14:52;;;;;;;22.45;12.27;;;18.80;36.50;;;;;;4959399;28;20801;-67
2022/03/27 12:17:18;;;;;;;21.00;12.57;;;18.90;36.60;;;;;;4978530;28;20070;-68
2022/03/27 12:20:06;;;;;;;21.90;12.52;;;18.90;37.10;;;;;;4977744;28;20426;-66
2022/03/27 12:22:34;;;;;;;23.15;13.35;;;18.90;36.30;;;;;;4975253;28;20093;-68
2022/03/27 12:25:02;;;;;;;21.95;13.43;;;19.00;36.80;;;;;;4958567;28;20076;-67
2022/03/27 12:30:12;;;;;;;18.30;12.13;;;19.00;36.30;;;;;;4976458;28;20111;-67
2022/03/27 12:32:38;;;;;;;20.75;12.60;;;19.00;36.40;;;;;;4959984;28;20039;-66
2022/03/27 12:35:06;;;;;;;18.08;11.82;;;19.10;36.00;;;;;;4966163;28;20042;-66
2022/03/27 12:37:35;;;;;;;22.13;12.18;;;19.10;35.70;;;;;;4981189;28;20090;-66
2022/03/27 12:40:06;;;;;;;21.00;12.02;;;19.20;35.50;;;;;;4968347;28;20414;-67
2022/03/27 12:42:44;;;;;;;18.83;11.80;;;19.20;35.10;;;;;;4962953;28;20038;-66
2022/03/27 12:45:10;;;;;;;22.08;12.63;;;19.20;34.80;;;;;;4979910;28;20039;-67
2022/03/27 12:47:37;;;;;;;23.42;11.93;;;19.20;35.00;;;;;;4971210;28;20039;-66
2022/03/27 12:50:04;;;;;;;19.50;12.50;;;19.20;35.00;;;;;;4974283;28;20030;-66